MOL Paramount — 3ECH9 — position and weather

sailwx.info

Track history (hours):
 
Tides and Currents Weather Stations Pressure Air Temp Water Temp Dewpoint Dewpoint Depression Visibility Wind Speed Wind Dir Waves Ship Positions

MOL Paramount

Last reported at 2014-Aug-18 04:11 UTC. Time now 2014-Aug-21 00:28 UTC.
Position N 40°45' W 029°39'.

Length 293 m; draft 12.2 m.

Type: Cargo ship. MMSI: 371519000.

Date/timePositionNaut miles runAvg speedWind from/ knotsBaromVisibWave heightAir tempDewpointWater temp
2014-Aug-18 04:11N 40°45' W 029°39'4816.7
2014-Aug-18 01:20N 40°35' W 028°38'13816.7
2014-Aug-17 17:04N 40°07' W 025°40'  
2014-Aug-13 20:33N 37°32' E 007°16'1817.5
2014-Aug-13 19:30N 37°34' E 007°39'1718.1
2014-Aug-13 18:33N 37°37' E 008°00'1918.0
2014-Aug-13 17:29N 37°40' E 008°25'2318.1
2014-Aug-13 16:13N 37°43' E 008°54'1217.7
2014-Aug-13 15:33N 37°43' E 009°08'1717.2
2014-Aug-13 14:33N 37°41' E 009°30'1717.0
2014-Aug-13 13:33N 37°40' E 009°51'1717.2
2014-Aug-13 12:33N 37°39' E 010°13'1717.5
2014-Aug-13 11:34N 37°38' E 010°35'1817.5
2014-Aug-13 10:33N 37°33' E 010°56'1817.8
2014-Aug-13 09:33N 37°25' E 011°16'1818.4
2014-Aug-13 08:33N 37°16' E 011°36'1916.6
2014-Aug-13 07:26N 37°08' E 011°57'3718.4
2014-Aug-13 05:27N 36°50' E 012°38'1818.5
2014-Aug-13 04:30N 36°42' E 012°57'  
2014-Aug-10 23:13N 32°17' E 030°03'3914.3
2014-Aug-10 20:29N 32°06' E 030°47'  
Track history (hours):
 
Tides and Currents Weather Stations Pressure Air Temp Water Temp Dewpoint Dewpoint Depression Visibility Wind Speed Wind Dir Waves Ship Positions

MOL Paramount

Last reported at 2014-Aug-18 04:11 UTC. Time now 2014-Aug-21 00:28 UTC.
Position N 40°45' W 029°39'.

Length 293 m; draft 12.2 m.

Type: Cargo ship. MMSI: 371519000.

Date/timePositionNaut miles runAvg speedWind from/ knotsBaromVisibWave heightAir tempDewpointWater temp
2014-Aug-18 04:11N 40°45' W 029°39'4816.7
2014-Aug-18 01:20N 40°35' W 028°38'13816.7
2014-Aug-17 17:04N 40°07' W 025°40'  
2014-Aug-13 20:33N 37°32' E 007°16'1817.5
2014-Aug-13 19:30N 37°34' E 007°39'1718.1
2014-Aug-13 18:33N 37°37' E 008°00'1918.0
2014-Aug-13 17:29N 37°40' E 008°25'2318.1
2014-Aug-13 16:13N 37°43' E 008°54'1217.7
2014-Aug-13 15:33N 37°43' E 009°08'1717.2
2014-Aug-13 14:33N 37°41' E 009°30'1717.0
2014-Aug-13 13:33N 37°40' E 009°51'1717.2
2014-Aug-13 12:33N 37°39' E 010°13'1717.5
2014-Aug-13 11:34N 37°38' E 010°35'1817.5
2014-Aug-13 10:33N 37°33' E 010°56'1817.8
2014-Aug-13 09:33N 37°25' E 011°16'1818.4
2014-Aug-13 08:33N 37°16' E 011°36'1916.6
2014-Aug-13 07:26N 37°08' E 011°57'3718.4
2014-Aug-13 05:27N 36°50' E 012°38'1818.5
2014-Aug-13 04:30N 36°42' E 012°57'  
2014-Aug-10 23:13N 32°17' E 030°03'3914.3
2014-Aug-10 20:29N 32°06' E 030°47'  

Dump ship's entire track history